Time;durP1;ratioP1;P1;durP2;ratioP2;P2;SDS_P1;SDS_P2;PMS_P1;PMS_P2;Temp;Humidity;BMP_temperature;BMP_pressure;BME280_temperature;BME280_humidity;BME280_pressure;Samples;Min_cycle;Max_cycle;Signal;HPM_P1;HPM_P2
2022/09/19 00:02:23;;;;;;;1999.90;999.90;;;13.40;99.90;;;;;;5209325;28;20544;-74
2022/09/19 00:04:53;;;;;;;1999.90;999.90;;;13.10;99.90;;;;;;5209367;28;20040;-74
2022/09/19 00:07:24;;;;;;;1999.90;999.90;;;13.40;99.90;;;;;;5191421;28;20021;-74
2022/09/19 00:10:02;;;;;;;1999.90;999.90;;;13.20;99.90;;;;;;5191697;28;20029;-75
2022/09/19 00:12:37;;;;;;;1999.90;999.90;;;13.10;99.90;;;;;;5208847;28;20159;-75
2022/09/19 00:15:18;;;;;;;1999.90;999.90;;;12.90;99.90;;;;;;5190827;28;20045;-75
2022/09/19 00:17:54;;;;;;;;;;;13.10;99.90;;;;;;5186462;28;20026;-75
2022/09/19 00:20:27;;;;;;;1999.90;999.90;;;12.60;99.90;;;;;;5208809;28;19912;-75
2022/09/19 00:26:10;;;;;;;1999.90;999.90;;;13.00;99.90;;;;;;5208690;28;20049;-75
2022/09/19 00:28:42;;;;;;;1999.90;999.90;;;13.10;99.90;;;;;;5191142;28;20393;-75
2022/09/19 00:31:17;;;;;;;1999.90;999.90;;;13.00;99.90;;;;;;5191109;28;20469;-75
2022/09/19 00:33:48;;;;;;;1999.90;999.90;;;12.80;99.90;;;;;;5208926;28;20053;-74
2022/09/19 00:36:19;;;;;;;1999.90;999.90;;;12.80;99.90;;;;;;5208694;28;20573;-74
2022/09/19 00:38:50;;;;;;;1999.90;999.90;;;12.80;99.90;;;;;;5190804;28;20120;-74
2022/09/19 00:41:25;;;;;;;1999.90;999.90;;;12.90;99.90;;;;;;5190835;28;20021;-74
2022/09/19 00:43:57;;;;;;;1999.90;999.90;;;12.70;99.90;;;;;;5208367;28;20025;-74
2022/09/19 00:46:31;;;;;;;1999.90;999.90;;;12.50;99.90;;;;;;5208291;28;20374;-74
2022/09/19 00:49:03;;;;;;;1999.90;999.90;;;12.60;99.90;;;;;;5208391;28;20083;-74
2022/09/19 00:51:46;;;;;;;1999.90;999.90;;;12.60;99.90;;;;;;5208337;28;20354;-74
2022/09/19 00:54:33;;;;;;;1999.90;999.90;;;12.30;99.90;;;;;;5208332;28;20041;-74
2022/09/19 00:57:04;;;;;;;1999.90;999.90;;;12.40;99.90;;;;;;5190962;28;20017;-74
2022/09/19 00:59:37;;;;;;;1999.90;999.90;;;12.30;99.90;;;;;;5208383;28;20029;-74
2022/09/19 01:02:08;;;;;;;1999.90;999.90;;;12.20;99.90;;;;;;5208333;28;20089;-74
2022/09/19 01:04:41;;;;;;;1999.90;999.90;;;12.50;99.90;;;;;;5208036;28;20393;-74
2022/09/19 01:07:44;;;;;;;1999.90;999.90;;;12.40;99.90;;;;;;5207863;28;20087;-74
2022/09/19 01:10:26;;;;;;;1999.90;999.90;;;12.10;99.90;;;;;;5181244;28;20041;-74
2022/09/19 01:13:20;;;;;;;1999.90;999.90;;;12.10;99.90;;;;;;5208143;28;20030;-74
2022/09/19 01:16:16;;;;;;;1999.90;999.90;;;12.30;99.90;;;;;;5190204;28;20038;-74
2022/09/19 01:19:17;;;;;;;1999.90;999.90;;;12.30;99.90;;;;;;5207971;28;20113;-74
2022/09/19 01:22:01;;;;;;;1999.90;999.90;;;11.90;99.90;;;;;;5190116;28;20021;-74
2022/09/19 01:24:56;;;;;;;1999.90;999.90;;;12.10;99.90;;;;;;5190683;28;20026;-74
2022/09/19 01:27:51;;;;;;;1999.90;999.90;;;12.00;99.90;;;;;;5207801;28;20029;-74
2022/09/19 01:30:22;;;;;;;1999.90;999.90;;;12.40;99.90;;;;;;5207722;28;20029;-74
2022/09/19 01:33:26;;;;;;;1999.90;999.90;;;12.20;99.90;;;;;;5207708;28;20030;-74
2022/09/19 01:35:57;;;;;;;1999.90;999.90;;;12.30;99.90;;;;;;5153541;28;20465;-74
2022/09/19 01:38:28;;;;;;;1999.90;999.90;;;12.10;99.90;;;;;;5207546;28;20018;-74
2022/09/19 01:40:59;;;;;;;1999.90;999.90;;;12.10;99.90;;;;;;5207497;28;20030;-74
2022/09/19 01:43:30;;;;;;;1999.90;999.90;;;12.20;99.90;;;;;;5206795;28;20503;-74
2022/09/19 01:46:11;;;;;;;1999.90;999.90;;;12.40;99.90;;;;;;5207384;28;20060;-74
2022/09/19 01:48:53;;;;;;;1999.90;999.90;;;12.60;99.90;;;;;;5207403;28;20037;-74
2022/09/19 01:51:31;;;;;;;1999.90;999.90;;;12.40;99.90;;;;;;5189636;28;20032;-74
2022/09/19 01:54:31;;;;;;;1999.90;999.90;;;12.50;99.90;;;;;;5207176;28;20037;-75
2022/09/19 01:57:23;;;;;;;1999.90;999.90;;;12.70;99.90;;;;;;5185750;28;20069;-76
2022/09/19 02:00:26;;;;;;;1999.90;999.90;;;12.90;99.90;;;;;;5189511;28;20033;-74
2022/09/19 02:03:06;;;;;;;1999.90;999.90;;;12.70;99.90;;;;;;5153117;28;20041;-74
2022/09/19 02:05:50;;;;;;;1999.90;999.90;;;12.80;99.90;;;;;;5207152;28;20025;-74
2022/09/19 02:08:36;;;;;;;1999.90;999.90;;;12.50;99.90;;;;;;5189376;28;20029;-74
2022/09/19 02:11:16;;;;;;;1999.90;999.90;;;12.50;99.90;;;;;;5207066;28;20464;-74
2022/09/19 02:14:16;;;;;;;1999.90;999.90;;;12.50;99.90;;;;;;5188971;28;20132;-74
2022/09/19 02:16:51;;;;;;;;;;;12.40;99.90;;;;;;5207332;28;20055;-74
2022/09/19 02:19:32;;;;;;;1999.90;999.90;;;12.00;99.90;;;;;;5189596;28;19905;-75
2022/09/19 02:22:26;;;;;;;1999.90;999.90;;;12.10;99.90;;;;;;5207300;28;20022;-74
2022/09/19 02:25:07;;;;;;;1999.90;999.90;;;12.50;99.90;;;;;;5189158;28;20485;-74
2022/09/19 02:27:50;;;;;;;1999.90;999.90;;;12.40;99.90;;;;;;5206369;28;20037;-74
2022/09/19 02:30:21;;;;;;;1999.90;999.90;;;12.10;99.90;;;;;;5206952;28;20036;-74
2022/09/19 02:32:53;;;;;;;1999.90;999.90;;;12.00;99.90;;;;;;5206689;28;20025;-74
2022/09/19 02:35:46;;;;;;;1999.90;999.90;;;11.90;99.90;;;;;;5206943;28;20406;-74
2022/09/19 02:38:43;;;;;;;1999.90;999.90;;;12.20;99.90;;;;;;5207105;28;20014;-74
2022/09/19 02:41:34;;;;;;;1999.90;999.90;;;12.20;99.90;;;;;;5206853;28;20032;-74
2022/09/19 02:44:21;;;;;;;1999.90;999.90;;;11.80;99.90;;;;;;5189030;28;20412;-74
2022/09/19 02:47:16;;;;;;;1999.90;999.90;;;11.80;99.90;;;;;;5206670;28;20037;-75
2022/09/19 02:49:55;;;;;;;1999.90;999.90;;;11.90;99.90;;;;;;5189139;28;20045;-74
2022/09/19 02:52:33;;;;;;;1999.90;999.90;;;12.00;99.90;;;;;;5188822;28;20083;-74
2022/09/19 02:55:12;;;;;;;1999.90;999.90;;;11.70;99.90;;;;;;5207824;28;20477;-74
2022/09/19 02:57:47;;;;;;;1999.90;999.90;;;11.60;99.90;;;;;;5193137;28;20030;-74
2022/09/19 03:00:18;;;;;;;1999.90;999.90;;;11.90;99.90;;;;;;5210485;28;20049;-74
2022/09/19 03:04:11;;;;;;;1999.90;999.90;;;11.70;99.90;;;;;;5210516;28;20022;-74
2022/09/19 03:06:00;;;;;;;1999.90;999.90;;;11.60;99.90;;;;;;5210285;28;20477;-74
2022/09/19 03:08:36;;;;;;;1999.90;999.90;;;11.40;99.90;;;;;;5192609;28;20026;-74
2022/09/19 03:11:14;;;;;;;1999.90;999.90;;;11.40;99.90;;;;;;5192740;28;20035;-75
2022/09/19 03:13:45;;;;;;;1999.90;999.90;;;11.50;99.90;;;;;;5210178;28;20156;-74
2022/09/19 03:16:27;;;;;;;1999.90;999.90;;;11.30;99.90;;;;;;5210367;28;20064;-74
2022/09/19 03:18:58;;;;;;;1999.90;999.90;;;10.90;99.90;;;;;;5210309;28;20025;-75
2022/09/19 03:21:29;;;;;;;1999.90;999.90;;;11.30;99.90;;;;;;5210097;28;20532;-74
2022/09/19 03:24:01;;;;;;;1999.90;999.90;;;11.20;99.90;;;;;;5209848;28;20029;-75
2022/09/19 03:26:34;;;;;;;1999.90;999.90;;;11.30;99.90;;;;;;5209937;28;20014;-74
2022/09/19 03:29:08;;;;;;;1999.90;999.90;;;11.00;99.90;;;;;;5210159;28;20029;-73
2022/09/19 03:31:39;;;;;;;1999.90;999.90;;;11.20;99.90;;;;;;5192255;28;20034;-74
2022/09/19 03:34:12;;;;;;;1999.90;999.90;;;11.20;99.90;;;;;;5209620;28;20542;-75
2022/09/19 03:36:43;;;;;;;1999.90;999.90;;;11.20;99.90;;;;;;5209894;28;20104;-73
2022/09/19 03:39:15;;;;;;;1999.90;999.90;;;11.50;99.90;;;;;;5210129;28;20400;-74
2022/09/19 03:41:45;;;;;;;1999.90;999.90;;;11.20;99.90;;;;;;5192488;28;20029;-74
2022/09/19 03:44:19;;;;;;;1999.90;999.90;;;11.10;99.90;;;;;;5209605;28;20031;-73
2022/09/19 03:46:50;;;;;;;1999.90;999.90;;;10.90;99.90;;;;;;5191603;28;20081;-73
2022/09/19 03:49:21;;;;;;;1999.90;999.90;;;10.90;99.90;;;;;;5209618;28;20564;-74
2022/09/19 03:51:52;;;;;;;1999.90;999.90;;;11.00;99.90;;;;;;5209674;28;20112;-74
2022/09/19 03:54:23;;;;;;;1999.90;999.90;;;11.40;99.90;;;;;;5209566;28;20037;-74
2022/09/19 03:56:54;;;;;;;1999.90;999.90;;;11.10;99.90;;;;;;5191789;28;20026;-74
2022/09/19 03:59:25;;;;;;;1999.90;999.90;;;11.00;99.90;;;;;;5191663;28;20731;-74
2022/09/19 04:01:56;;;;;;;1999.90;999.90;;;11.00;99.90;;;;;;5209536;28;20025;-74
2022/09/19 04:04:26;;;;;;;1999.90;999.90;;;10.80;99.90;;;;;;5191789;28;20350;-74
2022/09/19 04:06:57;;;;;;;1999.90;999.90;;;10.90;99.90;;;;;;5209070;28;20029;-73
2022/09/19 04:09:29;;;;;;;1999.90;999.90;;;10.90;99.90;;;;;;5209888;28;20021;-73
2022/09/19 04:12:02;;;;;;;1999.90;999.90;;;11.10;99.90;;;;;;5209216;28;20036;-73
2022/09/19 04:14:34;;;;;;;1999.90;999.90;;;11.20;99.90;;;;;;5208905;28;20038;-73
2022/09/19 04:17:07;;;;;;;1999.90;999.90;;;11.10;99.90;;;;;;5191457;28;20139;-74
2022/09/19 04:19:38;;;;;;;1999.90;999.90;;;10.90;99.90;;;;;;5191289;28;20648;-74
2022/09/19 04:22:09;;;;;;;1999.90;999.90;;;11.40;99.90;;;;;;5191225;28;20116;-73
2022/09/19 04:24:42;;;;;;;1999.90;999.90;;;11.00;99.90;;;;;;5208402;28;20037;-73
2022/09/19 04:27:14;;;;;;;1999.90;999.90;;;11.20;99.90;;;;;;5208683;28;20469;-74
2022/09/19 04:29:44;;;;;;;1999.90;999.90;;;11.40;99.90;;;;;;5208541;28;20022;-74
2022/09/19 04:32:15;;;;;;;1999.90;999.90;;;11.10;99.90;;;;;;5190777;28;20121;-73
2022/09/19 04:34:47;;;;;;;1999.90;999.90;;;11.00;99.90;;;;;;5208536;28;20025;-73
2022/09/19 04:37:18;;;;;;;1999.90;999.90;;;11.10;99.90;;;;;;5208496;28;20028;-73
2022/09/19 04:39:49;;;;;;;1999.90;999.90;;;11.10;99.90;;;;;;5208477;28;20029;-74
2022/09/19 04:42:20;;;;;;;1999.90;999.90;;;11.40;99.90;;;;;;5208789;28;20026;-74
2022/09/19 04:44:53;;;;;;;1999.90;999.90;;;11.50;99.90;;;;;;5189908;28;20489;-74
2022/09/19 04:47:24;;;;;;;1999.90;999.90;;;11.70;99.90;;;;;;5189758;28;20041;-74
2022/09/19 04:49:56;;;;;;;1999.90;999.90;;;11.80;99.90;;;;;;5207335;28;20034;-73
2022/09/19 04:52:27;;;;;;;1999.90;999.90;;;11.80;99.90;;;;;;5207667;28;20024;-74
2022/09/19 04:54:57;;;;;;;1999.90;999.90;;;12.00;99.90;;;;;;5207714;28;20025;-73
2022/09/19 04:57:28;;;;;;;1999.90;999.90;;;12.10;99.90;;;;;;5207506;28;20022;-74
2022/09/19 04:59:59;;;;;;;1999.90;999.90;;;12.00;99.90;;;;;;5207525;28;20030;-74
2022/09/19 05:02:31;;;;;;;1999.90;999.90;;;12.20;99.90;;;;;;5207705;28;20538;-74
2022/09/19 05:05:04;;;;;;;1999.90;999.90;;;12.40;99.90;;;;;;5189367;28;20022;-74
2022/09/19 05:07:35;;;;;;;1999.90;999.90;;;12.80;99.90;;;;;;5207108;28;20060;-74
2022/09/19 05:10:06;;;;;;;1999.90;999.90;;;12.80;99.90;;;;;;5207408;28;20112;-73
2022/09/19 05:12:37;;;;;;;1999.90;999.90;;;12.80;99.90;;;;;;5188598;28;20456;-73
2022/09/19 05:15:08;;;;;;;1999.90;999.90;;;13.00;99.90;;;;;;5207332;28;20061;-74
2022/09/19 05:17:40;;;;;;;1999.90;999.90;;;13.10;99.90;;;;;;5206069;28;20358;-74
2022/09/19 05:20:12;;;;;;;1999.90;999.90;;;13.10;99.90;;;;;;5206796;28;20059;-73
2022/09/19 05:22:43;;;;;;;1999.90;999.90;;;13.40;99.90;;;;;;5190021;28;20537;-74
2022/09/19 05:25:15;;;;;;;1999.90;999.90;;;13.40;99.90;;;;;;5190165;28;20021;-74
2022/09/19 05:27:46;;;;;;;1999.90;999.90;;;13.90;99.90;;;;;;5207517;28;20026;-74
2022/09/19 05:30:16;;;;;;;1999.90;999.90;;;13.90;99.90;;;;;;5187913;28;20036;-74
2022/09/19 05:32:47;;;;;;;1999.90;999.90;;;14.20;99.90;;;;;;5205349;28;20030;-74
2022/09/19 05:35:20;;;;;;;1999.90;999.90;;;14.60;99.90;;;;;;5187711;28;20025;-73
2022/09/19 05:37:51;;;;;;;1999.90;999.90;;;14.50;99.90;;;;;;5187836;28;20436;-73
2022/09/19 05:40:22;;;;;;;1999.90;999.90;;;14.50;99.90;;;;;;5205384;28;20082;-74
2022/09/19 05:43:00;;;;;;;1999.90;999.90;;;14.70;99.90;;;;;;5205811;28;20480;-74
2022/09/19 05:45:32;;;;;;;1999.90;999.90;;;15.10;99.90;;;;;;5206972;28;20132;-74
2022/09/19 05:48:05;;;;;;;1999.90;999.90;;;15.10;99.90;;;;;;5207279;28;20025;-74
2022/09/19 05:50:36;;;;;;;1999.90;999.90;;;15.30;99.90;;;;;;5207498;28;20053;-75
2022/09/19 05:55:58;;;;;;;1999.90;999.90;;;15.50;99.90;;;;;;5207420;28;20875;-74
2022/09/19 05:58:29;;;;;;;1999.90;999.90;;;16.10;99.90;;;;;;5207191;28;20021;-74
2022/09/19 06:01:06;;;;;;;1999.90;999.90;;;16.00;99.90;;;;;;5207115;28;20055;-74
2022/09/19 06:03:38;;;;;;;1999.90;999.90;;;16.00;99.90;;;;;;5189578;28;20422;-73
2022/09/19 06:06:13;;;;;;;1999.90;999.90;;;15.90;99.90;;;;;;5207252;28;20362;-75
2022/09/19 06:08:47;;;;;;;1999.90;999.90;;;16.30;99.90;;;;;;5189667;28;20021;-74
2022/09/19 06:11:17;;;;;;;1999.90;999.90;;;16.70;99.90;;;;;;5206791;28;20762;-74
2022/09/19 06:16:37;;;;;;;1999.90;999.90;;;17.30;99.90;;;;;;5206749;28;20653;-74
2022/09/19 06:19:08;;;;;;;1999.90;999.90;;;17.90;99.90;;;;;;5188652;28;20021;-75
2022/09/19 06:21:39;;;;;;;1999.90;999.90;;;18.00;99.90;;;;;;5206686;28;20075;-74
2022/09/19 06:24:10;;;;;;;1999.90;999.90;;;18.40;99.90;;;;;;5206661;28;20025;-74
2022/09/19 06:26:40;;;;;;;1999.90;999.90;;;18.60;99.90;;;;;;5206807;28;20401;-75
2022/09/19 06:29:11;;;;;;;1999.90;999.90;;;18.90;99.90;;;;;;5208033;28;20504;-74
2022/09/19 06:31:42;;;;;;;1999.90;999.90;;;19.10;99.90;;;;;;5210809;28;20029;-74
2022/09/19 06:34:14;;;;;;;1999.90;999.90;;;19.10;99.90;;;;;;5210489;28;20124;-74
2022/09/19 06:36:45;;;;;;;1999.90;999.90;;;19.10;99.90;;;;;;5210485;28;20469;-75
2022/09/19 06:39:16;;;;;;;1999.90;999.90;;;19.30;99.90;;;;;;5192874;28;20056;-75
2022/09/19 06:41:47;;;;;;;1999.90;999.90;;;19.20;99.90;;;;;;5210222;28;20025;-76
2022/09/19 11:51:08;;;;;;;1999.90;999.90;;;26.00;99.90;;;;;;5306960;27;20794;-74
2022/09/19 11:53:57;;;;;;;1999.90;999.90;;;25.50;99.90;;;;;;5306976;28;20034;-73
2022/09/19 11:56:48;;;;;;;;;;;25.70;99.90;;;;;;5307458;28;20020;-73
2022/09/19 11:59:24;;;;;;;1999.90;999.90;;;24.00;99.30;;;;;;5306702;28;19912;-74
2022/09/19 12:02:20;;;;;;;1999.90;999.90;;;25.00;99.90;;;;;;5306619;28;20076;-74
2022/09/19 12:05:23;;;;;;;1999.90;999.90;;;25.50;99.90;;;;;;5306644;28;20081;-72
2022/09/19 12:08:22;;;;;;;1999.90;999.90;;;25.60;99.90;;;;;;5306423;28;20027;-73
2022/09/19 12:10:56;;;;;;;1999.90;999.90;;;25.80;99.20;;;;;;5306125;28;20034;-73
2022/09/19 12:13:43;;;;;;;1999.90;999.90;;;25.40;99.40;;;;;;5306467;27;20027;-73
2022/09/19 12:16:24;;;;;;;1999.90;999.90;;;26.00;97.90;;;;;;5306473;27;20023;-74
2022/09/19 12:19:21;;;;;;;1999.90;999.90;;;25.50;98.30;;;;;;5306127;27;20028;-73
2022/09/19 12:22:00;;;;;;;1999.90;999.90;;;25.70;99.90;;;;;;5306145;27;20038;-71
2022/09/19 12:24:54;;;;;;;1999.90;999.90;;;25.70;99.90;;;;;;5296119;28;20080;-73
2022/09/19 12:27:41;;;;;;;1999.90;999.90;;;25.90;97.50;;;;;;5283515;28;20540;-72
2022/09/19 12:30:13;;;;;;;1999.90;999.90;;;26.20;97.00;;;;;;5284739;28;20036;-72
2022/09/19 12:33:06;;;;;;;1999.90;999.90;;;26.00;99.90;;;;;;5284836;28;20111;-72
2022/09/19 12:35:45;;;;;;;1999.90;999.90;;;25.70;99.70;;;;;;5283434;28;20032;-72
2022/09/19 12:38:39;;;;;;;1999.90;999.90;;;25.90;99.90;;;;;;5284800;28;20027;-73
2022/09/19 12:41:31;;;;;;;1999.90;999.90;;;26.00;97.40;;;;;;5284798;28;20046;-73
2022/09/19 12:44:33;;;;;;;1999.90;999.90;;;25.60;98.80;;;;;;5283325;28;20063;-72
2022/09/19 12:47:21;;;;;;;1999.90;999.90;;;25.60;99.90;;;;;;5283064;28;20035;-72
2022/09/19 12:50:03;;;;;;;1999.90;999.90;;;25.00;99.60;;;;;;5279531;28;20052;-73
2022/09/19 12:52:47;;;;;;;1999.90;999.90;;;25.30;98.30;;;;;;5270401;28;20088;-72
2022/09/19 12:55:30;;;;;;;1999.90;999.90;;;24.80;98.50;;;;;;5268977;28;20619;-72
2022/09/19 12:58:16;;;;;;;1999.90;999.90;;;25.20;98.20;;;;;;5270299;28;20536;-71
2022/09/19 13:00:48;;;;;;;1999.90;999.90;;;24.20;99.60;;;;;;5268964;28;20472;-71
2022/09/19 13:03:41;;;;;;;1999.90;999.90;;;25.50;98.70;;;;;;5270104;28;20024;-71
2022/09/19 13:06:30;;;;;;;1999.90;999.90;;;24.70;99.60;;;;;;5270015;28;20020;-72
2022/09/19 13:09:09;;;;;;;1999.90;999.90;;;25.20;99.90;;;;;;5270049;28;20375;-71
2022/09/19 13:11:41;;;;;;;;;;;25.80;99.20;;;;;;5270343;28;20047;-72
2022/09/19 13:14:23;;;;;;;1999.90;999.90;;;25.70;97.00;;;;;;5268476;28;20385;-71
2022/09/19 13:25:43;;;;;;;1999.90;999.90;;;24.80;96.30;;;;;;5269610;28;20081;-72
2022/09/19 13:28:19;;;;;;;1999.90;999.90;;;24.50;97.70;;;;;;5269771;28;20016;-71
2022/09/19 13:31:00;;;;;;;1999.90;999.90;;;25.30;97.20;;;;;;5269495;28;20032;-71
2022/09/19 13:33:45;;;;;;;1999.90;999.90;;;25.10;97.50;;;;;;5269672;28;20032;-71
2022/09/19 13:36:29;;;;;;;1999.90;999.90;;;24.80;95.70;;;;;;5269618;28;20012;-71
2022/09/19 13:39:00;;;;;;;1999.90;999.90;;;24.60;96.60;;;;;;5269349;28;20079;-72
2022/09/19 13:41:41;;;;;;;1999.90;999.90;;;25.10;98.80;;;;;;5269440;28;20043;-72
2022/09/19 13:44:36;;;;;;;1999.90;999.90;;;25.10;97.90;;;;;;5269515;28;20071;-72
2022/09/19 13:47:28;;;;;;;1999.90;999.90;;;24.80;99.90;;;;;;5269562;28;20016;-71
2022/09/19 13:50:14;;;;;;;1999.90;999.90;;;24.80;99.90;;;;;;5269073;28;20523;-71
2022/09/19 13:52:49;;;;;;;1999.90;999.90;;;24.70;97.90;;;;;;5269246;28;20066;-71
2022/09/19 13:55:41;;;;;;;1999.90;999.90;;;24.60;99.50;;;;;;5269265;28;20024;-71
2022/09/19 13:58:19;;;;;;;1999.90;999.90;;;23.70;99.90;;;;;;5267957;28;20028;-71
2022/09/19 14:01:12;;;;;;;1999.90;999.90;;;23.20;99.90;;;;;;5269044;28;20032;-71
2022/09/19 14:04:52;;;;;;;1999.90;999.90;;;24.10;99.90;;;;;;5268352;28;20515;-73
2022/09/19 14:06:59;;;;;;;1999.90;999.90;;;24.00;99.90;;;;;;5269052;28;20425;-72
2022/09/19 14:09:41;;;;;;;1999.90;999.90;;;24.00;99.90;;;;;;5269144;28;20118;-72
2022/09/19 14:12:33;;;;;;;1999.90;999.90;;;24.00;99.90;;;;;;5267498;28;20413;-72
2022/09/19 14:15:41;;;;;;;1999.90;999.90;;;23.60;99.90;;;;;;5268753;28;20031;-71
2022/09/19 14:18:24;;;;;;;1999.90;999.90;;;23.60;99.90;;;;;;5268350;28;20043;-72
2022/09/19 14:21:02;;;;;;;1999.90;999.90;;;23.50;99.90;;;;;;5268187;28;20109;-72
2022/09/19 14:23:58;;;;;;;1999.90;999.90;;;23.40;99.90;;;;;;5268673;28;20352;-73
2022/09/19 14:27:00;;;;;;;1999.90;999.90;;;23.20;99.90;;;;;;5268661;28;20020;-72
2022/09/19 14:29:52;;;;;;;1999.90;999.90;;;23.40;99.90;;;;;;5268517;28;20412;-72
2022/09/19 14:32:30;;;;;;;1999.90;999.90;;;23.10;99.90;;;;;;5268427;28;20039;-72
2022/09/19 14:35:01;;;;;;;1999.90;999.90;;;23.00;99.90;;;;;;5267040;28;20024;-71
2022/09/19 14:37:53;;;;;;;1999.90;999.90;;;23.00;99.90;;;;;;5268280;28;20450;-72
2022/09/19 14:40:37;;;;;;;1999.90;999.90;;;23.20;99.90;;;;;;5267922;28;20039;-73
2022/09/19 14:43:26;;;;;;;1999.90;999.90;;;23.40;99.90;;;;;;5268223;28;20032;-72
2022/09/19 14:46:09;;;;;;;1999.90;999.90;;;24.20;99.90;;;;;;5268079;28;20098;-73
2022/09/19 14:48:58;;;;;;;1999.90;999.90;;;24.10;99.90;;;;;;5267757;28;20290;-73
2022/09/19 14:51:53;;;;;;;1999.90;999.90;;;24.10;99.90;;;;;;5268019;28;20114;-72
2022/09/19 14:54:45;;;;;;;1999.90;999.90;;;23.10;99.90;;;;;;5267975;28;20017;-71
2022/09/19 14:57:21;;;;;;;1999.90;999.90;;;22.50;99.90;;;;;;5268120;28;20020;-72
2022/09/19 14:59:52;;;;;;;1999.90;999.90;;;22.30;99.90;;;;;;5267978;28;20028;-72
2022/09/19 15:02:28;;;;;;;1999.90;999.90;;;22.00;99.90;;;;;;5268121;28;20467;-72
2022/09/19 15:05:22;;;;;;;1999.90;999.90;;;21.60;99.90;;;;;;5267980;28;20022;-72
2022/09/19 15:07:53;;;;;;;1999.90;999.90;;;21.80;99.90;;;;;;5267962;28;20038;-72
2022/09/19 15:10:37;;;;;;;1999.90;999.90;;;21.40;99.90;;;;;;5268204;28;20036;-73
2022/09/19 15:13:24;;;;;;;1999.90;999.90;;;21.40;99.90;;;;;;5274081;28;20129;-72
2022/09/19 15:16:01;;;;;;;1999.90;999.90;;;21.20;99.90;;;;;;5246890;28;20025;-72
2022/09/19 15:18:38;;;;;;;1999.90;999.90;;;21.00;99.90;;;;;;5246826;28;20062;-72
2022/09/19 15:21:15;;;;;;;1999.90;999.90;;;20.80;99.90;;;;;;5246678;28;20032;-72
2022/09/19 15:23:48;;;;;;;1999.90;999.90;;;20.70;99.90;;;;;;5246906;28;20036;-72
2022/09/19 15:26:22;;;;;;;1999.90;999.90;;;20.70;99.90;;;;;;5246732;28;20142;-72
2022/09/19 15:29:01;;;;;;;1999.90;999.90;;;20.70;99.90;;;;;;5246561;28;20111;-72
2022/09/19 15:31:33;;;;;;;1999.90;999.90;;;20.40;99.90;;;;;;5245327;28;20024;-72
2022/09/19 15:34:18;;;;;;;1999.90;999.90;;;20.20;99.90;;;;;;5245322;28;20369;-72
2022/09/19 15:36:48;;;;;;;1999.90;999.90;;;20.30;99.90;;;;;;5246493;28;20029;-71
2022/09/19 15:39:19;;;;;;;1999.90;999.90;;;20.10;99.90;;;;;;5246361;28;20037;-72
2022/09/19 15:41:50;;;;;;;1999.90;999.90;;;19.90;99.90;;;;;;5246547;28;20541;-72
2022/09/19 15:44:30;;;;;;;1999.90;999.90;;;19.90;99.90;;;;;;5246389;28;20522;-71
2022/09/19 15:47:07;;;;;;;1999.90;999.90;;;19.50;99.90;;;;;;5246409;28;20055;-71
2022/09/19 15:49:41;;;;;;;1999.90;999.90;;;19.50;99.90;;;;;;5246112;28;20083;-72
2022/09/19 15:52:20;;;;;;;1999.90;999.90;;;18.70;99.90;;;;;;5246437;28;20090;-71
2022/09/19 15:54:53;;;;;;;1999.90;999.90;;;18.60;99.90;;;;;;5246310;28;20038;-72
2022/09/19 15:57:33;;;;;;;1999.90;999.90;;;18.90;99.90;;;;;;5246272;28;20017;-72
2022/09/19 16:00:10;;;;;;;1999.90;999.90;;;18.60;99.90;;;;;;5268940;28;20047;-71
2022/09/19 16:02:46;;;;;;;1999.90;999.90;;;18.70;99.90;;;;;;5288249;28;20034;-72
2022/09/19 16:05:23;;;;;;;1999.90;999.90;;;18.00;99.90;;;;;;5283999;28;20032;-72
2022/09/19 16:10:51;;;;;;;1999.90;999.90;;;17.80;99.90;;;;;;5267193;28;20035;-72
2022/09/19 16:13:40;;;;;;;1999.90;999.90;;;17.60;99.90;;;;;;5267290;28;20028;-71
2022/09/19 16:16:34;;;;;;;1999.90;999.90;;;17.00;99.90;;;;;;5266509;28;20455;-72
2022/09/19 16:19:05;;;;;;;1999.90;999.90;;;17.30;99.90;;;;;;5288227;28;20044;-72
2022/09/19 16:21:42;;;;;;;1999.90;999.90;;;17.20;99.90;;;;;;5288442;28;20023;-72
2022/09/19 16:24:16;;;;;;;1999.90;999.90;;;17.20;99.90;;;;;;5288292;28;20098;-72
2022/09/19 16:26:59;;;;;;;1999.90;999.90;;;16.60;99.90;;;;;;5291611;28;20432;-72
2022/09/19 16:29:36;;;;;;;1999.90;999.90;;;16.60;99.90;;;;;;5292232;28;20035;-72
2022/09/19 16:32:16;;;;;;;1999.90;999.90;;;16.90;99.90;;;;;;5292401;27;20031;-72
2022/09/19 16:34:58;;;;;;;1999.90;999.90;;;16.40;99.90;;;;;;5292248;28;20451;-72
2022/09/19 16:37:39;;;;;;;1999.90;999.90;;;16.30;99.90;;;;;;5292223;28;20019;-72
2022/09/19 16:40:22;;;;;;;1999.90;999.90;;;16.30;99.90;;;;;;5291771;28;20036;-72
2022/09/19 16:42:54;;;;;;;1999.90;999.90;;;16.40;99.90;;;;;;5291933;28;20015;-72
2022/09/19 16:45:39;;;;;;;1999.90;999.90;;;16.00;99.90;;;;;;5291939;28;20436;-72
2022/09/19 16:48:10;;;;;;;1999.90;999.90;;;16.20;99.90;;;;;;5291774;28;20016;-72
2022/09/19 16:50:41;;;;;;;1999.90;999.90;;;16.10;99.90;;;;;;5290241;28;20079;-72
2022/09/19 16:53:15;;;;;;;1999.90;999.90;;;16.00;99.90;;;;;;5290512;28;20522;-72
2022/09/19 16:55:46;;;;;;;1999.90;999.90;;;16.00;99.90;;;;;;5291720;28;20028;-72
2022/09/19 16:58:17;;;;;;;1999.90;999.90;;;15.80;99.90;;;;;;5290353;28;20026;-72
2022/09/19 17:00:48;;;;;;;1999.90;999.90;;;15.80;99.90;;;;;;5290101;28;20063;-72
2022/09/19 17:03:19;;;;;;;1999.90;999.90;;;15.70;99.90;;;;;;5290322;28;20030;-72
2022/09/19 17:05:50;;;;;;;1999.90;999.90;;;15.80;99.90;;;;;;5291783;28;20019;-72
2022/09/19 17:08:21;;;;;;;1999.90;999.90;;;15.90;99.90;;;;;;5291442;28;20036;-71
2022/09/19 17:10:52;;;;;;;1999.90;999.90;;;15.70;99.90;;;;;;5290908;28;20026;-72
2022/09/19 17:13:23;;;;;;;1999.90;999.90;;;15.40;99.90;;;;;;5291266;28;20031;-72
2022/09/19 17:15:58;;;;;;;1999.90;999.90;;;15.40;99.90;;;;;;5291347;28;20072;-72
2022/09/19 17:18:29;;;;;;;1999.90;999.90;;;15.50;99.90;;;;;;5291326;28;20035;-71
2022/09/19 17:21:01;;;;;;;1999.90;999.90;;;15.30;99.90;;;;;;5291106;28;20535;-72
2022/09/19 17:23:32;;;;;;;1999.90;999.90;;;15.20;99.90;;;;;;5289985;28;20478;-72
2022/09/19 17:26:03;;;;;;;1999.90;999.90;;;14.60;99.90;;;;;;5291158;28;20034;-72
2022/09/19 17:28:35;;;;;;;1999.90;999.90;;;14.80;99.90;;;;;;5291279;28;20090;-72
2022/09/19 17:31:05;;;;;;;1999.90;999.90;;;15.20;99.90;;;;;;5290854;28;20020;-72
2022/09/19 17:33:36;;;;;;;1999.90;999.90;;;14.50;99.90;;;;;;5290956;28;20034;-71
2022/09/19 17:36:11;;;;;;;1999.90;999.90;;;14.80;99.90;;;;;;5290932;27;20020;-72
2022/09/19 17:38:42;;;;;;;1999.90;999.90;;;15.00;99.90;;;;;;5290799;28;20428;-72
2022/09/19 17:41:13;;;;;;;1999.90;999.90;;;15.10;99.90;;;;;;5289371;28;20112;-72
2022/09/19 17:43:44;;;;;;;1999.90;999.90;;;15.10;99.90;;;;;;5290922;28;20709;-71
2022/09/19 17:46:17;;;;;;;1999.90;999.90;;;15.10;99.90;;;;;;5289258;28;20045;-71
2022/09/19 17:48:52;;;;;;;1999.90;999.90;;;15.00;99.90;;;;;;5290267;28;20075;-71
2022/09/19 17:51:23;;;;;;;1999.90;999.90;;;14.70;99.90;;;;;;5290550;28;20023;-71
2022/09/19 17:53:55;;;;;;;1999.90;999.90;;;14.50;99.90;;;;;;5290523;28;20359;-72
2022/09/19 17:56:27;;;;;;;1999.90;999.90;;;14.40;99.90;;;;;;5290483;28;20416;-71
2022/09/19 17:59:01;;;;;;;1999.90;999.90;;;14.50;99.90;;;;;;5290373;28;20095;-72
2022/09/19 18:04:21;;;;;;;1999.90;999.90;;;14.40;99.90;;;;;;5290293;28;20383;-71
2022/09/19 18:06:52;;;;;;;1999.90;999.90;;;14.40;99.90;;;;;;5289778;28;20020;-71
2022/09/19 18:09:23;;;;;;;1999.90;999.90;;;14.60;99.90;;;;;;5289524;28;20728;-72
2022/09/19 18:11:54;;;;;;;1999.90;999.90;;;14.30;99.90;;;;;;5288154;28;20398;-72
2022/09/19 18:14:26;;;;;;;1999.90;999.90;;;14.10;99.90;;;;;;5288592;28;20047;-71
2022/09/19 18:16:58;;;;;;;1999.90;999.90;;;14.10;99.90;;;;;;5288766;28;20703;-71
2022/09/19 18:19:31;;;;;;;1999.90;999.90;;;13.80;99.90;;;;;;5289208;28;20044;-71
2022/09/19 18:22:03;;;;;;;1999.90;999.90;;;14.10;99.90;;;;;;5291318;28;20520;-71
2022/09/19 18:24:35;;;;;;;1999.90;999.90;;;14.20;99.90;;;;;;5290496;28;20102;-71